Time;durP1;ratioP1;P1;durP2;ratioP2;P2;SDS_P1;SDS_P2;PMS_P1;PMS_P2;Temp;Humidity;BMP_temperature;BMP_pressure;BME280_temperature;BME280_humidity;BME280_pressure;Samples;Min_cycle;Max_cycle;Signal;HPM_P1;HPM_P2
2022/08/19 00:01:34;;;;;;;11.43;6.82;;;22.20;99.30;;;;;;4970668;28;20031;-77
2022/08/19 00:04:02;;;;;;;9.45;6.45;;;22.10;99.50;;;;;;4955740;28;20037;-78
2022/08/19 00:06:29;;;;;;;13.90;6.20;;;22.10;99.60;;;;;;4955695;28;20020;-78
2022/08/19 00:08:55;;;;;;;10.13;6.60;;;22.00;99.60;;;;;;4970349;28;20035;-78
2022/08/19 00:11:22;;;;;;;13.98;6.28;;;21.80;99.90;;;;;;4955230;28;20500;-78
2022/08/19 00:13:49;;;;;;;11.65;6.82;;;21.80;99.90;;;;;;4956349;28;20027;-76
2022/08/19 00:16:19;;;;;;;10.95;6.30;;;21.80;99.80;;;;;;4954492;28;20051;-77
2022/08/19 00:18:44;;;;;;;11.10;6.50;;;21.90;99.70;;;;;;4970468;28;20038;-77
2022/08/19 00:21:10;;;;;;;9.15;5.95;;;21.90;99.60;;;;;;4954254;28;20035;-77
2022/08/19 00:23:36;;;;;;;9.77;5.82;;;21.80;99.80;;;;;;4955281;28;20027;-77
2022/08/19 00:26:07;;;;;;;9.10;5.88;;;21.80;99.80;;;;;;4956004;28;20086;-78
2022/08/19 00:28:35;;;;;;;8.40;6.43;;;21.80;99.80;;;;;;4954190;28;20466;-78
2022/08/19 00:31:04;;;;;;;8.70;5.80;;;21.50;99.90;;;;;;4955338;28;20078;-79
2022/08/19 00:33:33;;;;;;;12.10;6.60;;;21.60;99.90;;;;;;4955223;28;20374;-78
2022/08/19 00:36:00;;;;;;;10.80;5.95;;;21.60;99.90;;;;;;4970251;28;20043;-78
2022/08/19 00:38:27;;;;;;;10.85;5.80;;;21.60;99.90;;;;;;4970258;28;20050;-77
2022/08/19 00:40:54;;;;;;;9.82;6.05;;;21.60;99.90;;;;;;4955383;28;20024;-76
2022/08/19 00:43:23;;;;;;;13.23;6.40;;;21.50;99.90;;;;;;4954921;28;20366;-77
2022/08/19 00:45:49;;;;;;;10.40;6.50;;;21.50;99.90;;;;;;4969716;28;20032;-78
2022/08/19 00:48:16;;;;;;;11.27;6.35;;;21.50;99.90;;;;;;4954938;28;20027;-77
2022/08/19 00:50:43;;;;;;;14.82;6.95;;;21.50;99.90;;;;;;4954675;28;20054;-77
2022/08/19 00:53:11;;;;;;;13.85;7.07;;;21.40;99.90;;;;;;4955359;28;20035;-77
2022/08/19 00:55:38;;;;;;;9.80;6.63;;;21.30;99.90;;;;;;4954756;29;20054;-78
2022/08/19 00:58:11;;;;;;;11.77;6.60;;;21.40;99.90;;;;;;4954718;28;20422;-77
2022/08/19 01:00:37;;;;;;;9.23;6.00;;;21.30;99.90;;;;;;4954420;28;20031;-77
2022/08/19 01:03:07;;;;;;;10.15;6.25;;;21.20;99.90;;;;;;4954714;28;20051;-78
2022/08/19 01:05:34;;;;;;;11.43;6.75;;;21.10;99.90;;;;;;4969541;28;20156;-76
2022/08/19 01:08:02;;;;;;;13.90;7.60;;;21.10;99.90;;;;;;4954835;28;20027;-77
2022/08/19 01:10:32;;;;;;;12.15;6.43;;;21.00;99.90;;;;;;4954353;28;20477;-77
2022/08/19 01:13:00;;;;;;;10.38;6.57;;;21.10;99.90;;;;;;4969216;28;20497;-78
2022/08/19 01:15:33;;;;;;;10.93;6.63;;;21.00;99.90;;;;;;4954326;28;20031;-76
2022/08/19 01:18:06;;;;;;;11.48;7.20;;;21.10;99.90;;;;;;4954090;28;20031;-77
2022/08/19 01:20:32;;;;;;;14.63;6.90;;;21.00;99.90;;;;;;4954219;28;20101;-78
2022/08/19 01:22:59;;;;;;;11.43;6.38;;;21.00;99.90;;;;;;4954774;28;20019;-78
2022/08/19 01:25:31;;;;;;;16.15;6.80;;;21.00;99.90;;;;;;4954157;28;20039;-78
2022/08/19 01:27:57;;;;;;;17.85;8.00;;;21.00;99.90;;;;;;4954421;28;20061;-78
2022/08/19 01:30:28;;;;;;;13.52;6.78;;;21.00;99.90;;;;;;4953578;28;20043;-78
2022/08/19 01:32:55;;;;;;;12.48;7.35;;;21.00;99.90;;;;;;4953559;28;20082;-78
2022/08/19 01:35:23;;;;;;;12.05;7.07;;;21.00;99.90;;;;;;4956760;28;20030;-78
2022/08/19 01:37:51;;;;;;;;;;;21.00;99.90;;;;;;4974145;28;20465;-78
2022/08/19 01:40:20;;;;;;;9.88;6.22;;;21.10;99.90;;;;;;4972989;28;19910;-78
2022/08/19 01:42:47;;;;;;;12.93;8.18;;;21.10;99.90;;;;;;4972210;28;20031;-78
2022/08/19 01:45:13;;;;;;;15.13;7.30;;;21.10;99.90;;;;;;4972105;28;20031;-78
2022/08/19 01:47:39;;;;;;;11.23;7.10;;;21.00;99.90;;;;;;4972923;28;20089;-77
2022/08/19 01:50:07;;;;;;;9.68;7.10;;;21.10;99.90;;;;;;4973267;28;20038;-77
2022/08/19 01:52:35;;;;;;;13.45;6.90;;;21.10;99.90;;;;;;4972891;28;20027;-77
2022/08/19 01:55:01;;;;;;;11.63;6.90;;;21.10;99.90;;;;;;4972892;28;20380;-77
2022/08/19 01:57:27;;;;;;;14.25;7.63;;;21.20;99.90;;;;;;4973064;28;20508;-77
2022/08/19 01:59:53;;;;;;;14.20;7.38;;;21.10;99.90;;;;;;4972927;28;20039;-77
2022/08/19 02:02:19;;;;;;;14.98;7.50;;;21.10;99.90;;;;;;4972569;28;20034;-77
2022/08/19 02:04:45;;;;;;;16.85;7.40;;;21.00;99.90;;;;;;4973177;28;20027;-77
2022/08/19 02:07:11;;;;;;;16.45;8.35;;;21.10;99.90;;;;;;4971500;28;20369;-76
2022/08/19 02:09:38;;;;;;;12.43;7.00;;;21.00;99.90;;;;;;4972360;28;20078;-77
2022/08/19 02:12:04;;;;;;;15.60;7.90;;;21.00;99.90;;;;;;4972627;28;20144;-78
2022/08/19 02:14:30;;;;;;;13.20;7.35;;;21.00;99.90;;;;;;4972623;28;20342;-78
2022/08/19 02:16:56;;;;;;;13.20;8.18;;;21.00;99.90;;;;;;4972826;28;20111;-77
2022/08/19 02:19:22;;;;;;;10.65;6.85;;;21.00;99.90;;;;;;4972539;28;20034;-78
2022/08/19 02:21:48;;;;;;;13.98;7.15;;;21.00;99.90;;;;;;4972471;28;20031;-77
2022/08/19 02:24:13;;;;;;;17.33;7.03;;;21.00;99.90;;;;;;4972390;28;20035;-77
2022/08/19 02:26:39;;;;;;;11.88;6.93;;;20.90;99.90;;;;;;4972176;28;20042;-77
2022/08/19 02:29:05;;;;;;;11.48;6.57;;;20.90;99.90;;;;;;4972640;28;20361;-76
2022/08/19 02:31:31;;;;;;;11.98;7.30;;;21.00;99.90;;;;;;4972627;28;20031;-77
2022/08/19 02:33:57;;;;;;;10.85;6.65;;;21.00;99.90;;;;;;4972692;28;20023;-77
2022/08/19 02:36:24;;;;;;;13.13;6.70;;;20.90;99.90;;;;;;4972199;28;20042;-76
2022/08/19 02:38:50;;;;;;;11.50;6.35;;;20.90;99.90;;;;;;4971132;28;20513;-77
2022/08/19 02:41:19;;;;;;;11.63;6.75;;;20.80;99.90;;;;;;4972207;28;20061;-78
2022/08/19 02:43:45;;;;;;;9.73;6.53;;;20.70;99.90;;;;;;4971610;28;20434;-77
2022/08/19 02:46:13;;;;;;;10.85;6.25;;;20.80;99.90;;;;;;4972252;28;20074;-76
2022/08/19 02:48:39;;;;;;;;;;;20.80;99.90;;;;;;4971791;28;20055;-78
2022/08/19 02:51:05;;;;;;;15.75;6.95;;;20.80;99.90;;;;;;4973106;28;19954;-78
2022/08/19 02:53:31;;;;;;;14.95;7.38;;;20.80;99.90;;;;;;4975920;28;20035;-77
2022/08/19 02:55:57;;;;;;;11.45;6.82;;;20.80;99.90;;;;;;4976473;28;20023;-76
2022/08/19 02:58:23;;;;;;;11.18;6.28;;;20.80;99.90;;;;;;4975841;28;20045;-78
2022/08/19 03:00:54;;;;;;;12.73;6.43;;;20.70;99.90;;;;;;4976123;28;20038;-76
2022/08/19 03:03:21;;;;;;;13.10;7.10;;;20.70;99.90;;;;;;4975137;28;20553;-77
2022/08/19 03:05:47;;;;;;;11.88;6.32;;;20.70;99.90;;;;;;4975966;28;20046;-78
2022/08/19 03:08:13;;;;;;;12.70;6.50;;;20.70;99.90;;;;;;4974860;28;20480;-78
2022/08/19 03:10:46;;;;;;;12.40;6.00;;;20.70;99.90;;;;;;4976448;28;20417;-78
2022/08/19 03:13:17;;;;;;;9.20;5.88;;;20.90;99.90;;;;;;4976084;28;20208;-77
2022/08/19 03:15:46;;;;;;;12.77;6.22;;;20.80;99.90;;;;;;4976133;28;20041;-77
2022/08/19 03:18:13;;;;;;;11.48;6.15;;;20.80;99.90;;;;;;4975835;28;20187;-76
2022/08/19 03:20:51;;;;;;;9.93;6.75;;;20.80;99.90;;;;;;4974697;28;20038;-77
2022/08/19 03:23:17;;;;;;;14.00;5.57;;;20.70;99.90;;;;;;4975690;28;20070;-78
2022/08/19 03:25:46;;;;;;;13.35;6.68;;;20.80;99.90;;;;;;4976143;28;20413;-77
2022/08/19 03:28:13;;;;;;;12.43;5.57;;;20.70;99.90;;;;;;4975447;28;20031;-77
2022/08/19 03:30:43;;;;;;;10.63;6.10;;;20.70;99.90;;;;;;4975468;28;20031;-77
2022/08/19 03:33:11;;;;;;;9.70;5.93;;;20.80;99.90;;;;;;4975646;28;20061;-77
2022/08/19 03:35:37;;;;;;;12.68;5.25;;;20.80;99.90;;;;;;4974620;28;20105;-77
2022/08/19 03:38:06;;;;;;;12.00;6.40;;;20.90;99.90;;;;;;4976028;28;20441;-76
2022/08/19 03:40:36;;;;;;;12.05;6.30;;;20.90;99.90;;;;;;4975155;28;20069;-77
2022/08/19 03:43:02;;;;;;;14.55;6.25;;;20.90;99.90;;;;;;4974302;28;20031;-77
2022/08/19 03:45:28;;;;;;;10.40;6.25;;;20.90;99.90;;;;;;4974276;28;20042;-78
2022/08/19 03:47:54;;;;;;;10.55;6.22;;;20.80;99.90;;;;;;4975268;28;20039;-78
2022/08/19 03:50:20;;;;;;;11.18;6.47;;;20.80;99.90;;;;;;4974059;28;20049;-77
2022/08/19 03:52:50;;;;;;;11.00;5.63;;;20.60;99.90;;;;;;4974559;28;20449;-77
2022/08/19 03:55:16;;;;;;;12.98;6.07;;;20.50;99.90;;;;;;4974030;28;20027;-77
2022/08/19 03:57:42;;;;;;;10.65;6.65;;;20.40;99.90;;;;;;4975134;28;20027;-78
2022/08/19 04:00:09;;;;;;;9.82;6.45;;;20.50;99.90;;;;;;4973842;28;20045;-77
2022/08/19 04:02:34;;;;;;;11.38;6.72;;;20.30;99.90;;;;;;4974807;28;20035;-77
2022/08/19 04:05:00;;;;;;;9.63;6.35;;;20.30;99.90;;;;;;4975444;28;20349;-78
2022/08/19 04:07:26;;;;;;;8.98;6.85;;;20.30;99.90;;;;;;4990145;28;20552;-78
2022/08/19 04:09:53;;;;;;;12.23;5.78;;;20.40;99.90;;;;;;4974319;28;20146;-78
2022/08/19 04:12:20;;;;;;;11.40;6.07;;;20.50;99.90;;;;;;4973552;28;20026;-78
2022/08/19 04:14:45;;;;;;;10.97;6.30;;;20.50;99.90;;;;;;4975102;28;20031;-78
2022/08/19 04:17:14;;;;;;;12.20;6.15;;;20.50;99.90;;;;;;4974574;28;20031;-77
2022/08/19 04:19:39;;;;;;;;;;;20.50;99.90;;;;;;4974403;28;20106;-77
2022/08/19 04:22:06;;;;;;;10.88;6.00;;;20.50;99.90;;;;;;4974610;28;19910;-76
2022/08/19 04:24:33;;;;;;;15.35;6.20;;;20.50;99.90;;;;;;4974404;28;20035;-76
2022/08/19 04:27:00;;;;;;;18.10;7.05;;;20.40;99.90;;;;;;4974675;28;20027;-77
2022/08/19 04:29:26;;;;;;;11.27;6.43;;;20.20;99.90;;;;;;4974173;28;20106;-79
2022/08/19 04:31:55;;;;;;;11.57;6.35;;;20.10;99.90;;;;;;4975000;28;20074;-78
2022/08/19 04:34:23;;;;;;;10.82;5.43;;;20.00;99.90;;;;;;4974286;28;20034;-75
2022/08/19 04:36:50;;;;;;;12.52;6.15;;;20.00;99.90;;;;;;4974361;28;20118;-79
2022/08/19 04:39:19;;;;;;;12.02;6.65;;;20.10;99.90;;;;;;4974561;28;20516;-78
2022/08/19 04:44:32;;;;;;;9.38;5.82;;;20.20;99.90;;;;;;4974329;28;20366;-78
2022/08/19 04:46:58;;;;;;;14.70;6.32;;;20.30;99.90;;;;;;4974769;28;20054;-78
2022/08/19 04:49:25;;;;;;;10.43;5.85;;;20.30;99.90;;;;;;4974450;28;20046;-77
2022/08/19 04:51:53;;;;;;;8.63;5.10;;;20.30;99.90;;;;;;4972950;28;20488;-77
2022/08/19 04:54:22;;;;;;;10.90;5.55;;;20.30;99.90;;;;;;4974074;28;20053;-78
2022/08/19 04:56:52;;;;;;;9.82;5.93;;;20.30;99.90;;;;;;4974043;28;20038;-78
2022/08/19 04:59:19;;;;;;;10.95;5.97;;;20.30;99.90;;;;;;4973011;28;20022;-78
2022/08/19 05:01:49;;;;;;;12.80;6.77;;;20.20;99.90;;;;;;4973600;28;20093;-77
2022/08/19 05:04:18;;;;;;;11.48;5.90;;;20.30;99.90;;;;;;4973864;28;20276;-78
2022/08/19 05:06:46;;;;;;;10.05;6.43;;;20.30;99.90;;;;;;4973828;28;20062;-77
2022/08/19 05:09:13;;;;;;;10.27;6.03;;;20.30;99.90;;;;;;4973866;28;20058;-78
2022/08/19 05:11:38;;;;;;;10.38;6.82;;;20.30;99.90;;;;;;4973492;28;20041;-78
2022/08/19 05:14:05;;;;;;;9.85;6.28;;;20.20;99.90;;;;;;4972429;28;20030;-78
2022/08/19 05:16:31;;;;;;;12.25;7.00;;;20.10;99.90;;;;;;4973598;28;20038;-77
2022/08/19 05:24:28;;;;;;;17.35;7.35;;;20.30;99.90;;;;;;4973174;28;20667;-77
2022/08/19 05:26:58;;;;;;;13.05;6.43;;;20.20;99.90;;;;;;4973157;28;20463;-77
2022/08/19 05:29:26;;;;;;;15.02;7.18;;;20.20;99.90;;;;;;4973408;28;20041;-78
2022/08/19 05:31:53;;;;;;;17.40;7.65;;;20.10;99.90;;;;;;4973505;28;20034;-77
2022/08/19 05:34:22;;;;;;;12.13;7.23;;;20.00;99.90;;;;;;4973247;28;20023;-77
2022/08/19 05:36:50;;;;;;;15.32;7.50;;;20.10;99.90;;;;;;4973063;28;20026;-76
2022/08/19 05:39:20;;;;;;;13.35;7.28;;;20.10;99.90;;;;;;4971929;28;20035;-77
2022/08/19 05:41:56;;;;;;;14.30;8.02;;;20.20;99.90;;;;;;4972969;28;20404;-77
2022/08/19 05:44:23;;;;;;;13.48;8.00;;;20.20;99.90;;;;;;4973271;28;20023;-78
2022/08/19 05:46:52;;;;;;;11.77;6.93;;;20.10;99.90;;;;;;4972321;28;20037;-78
2022/08/19 05:49:19;;;;;;;12.18;7.35;;;20.10;99.90;;;;;;4972429;28;20027;-77
2022/08/19 05:51:45;;;;;;;15.73;8.10;;;20.20;99.90;;;;;;4971573;28;20027;-77
2022/08/19 05:54:13;;;;;;;19.08;9.00;;;20.10;99.90;;;;;;4972664;28;20528;-79
2022/08/19 05:56:40;;;;;;;15.27;9.52;;;20.20;99.90;;;;;;4971921;28;20069;-77
2022/08/19 05:59:09;;;;;;;21.10;10.10;;;20.20;99.90;;;;;;4973075;28;20029;-78
2022/08/19 06:01:36;;;;;;;17.15;10.52;;;20.00;99.90;;;;;;4972774;28;20038;-78
2022/08/19 06:04:03;;;;;;;16.63;10.40;;;20.10;99.90;;;;;;4971297;28;20027;-77
2022/08/19 06:06:29;;;;;;;19.95;11.48;;;19.80;99.90;;;;;;4972581;28;20058;-78
2022/08/19 06:08:54;;;;;;;17.13;10.90;;;20.10;99.90;;;;;;4972305;28;20055;-77
2022/08/19 06:11:25;;;;;;;22.63;12.98;;;20.10;99.90;;;;;;4972425;28;20038;-77
2022/08/19 06:13:53;;;;;;;20.55;11.93;;;20.20;99.90;;;;;;4972754;28;20097;-78
2022/08/19 06:16:22;;;;;;;;;;;20.30;99.90;;;;;;4972799;28;20361;-77
2022/08/19 06:18:56;;;;;;;23.75;13.77;;;20.20;99.90;;;;;;4972224;28;19910;-77
2022/08/19 06:21:25;;;;;;;27.48;13.85;;;20.00;99.90;;;;;;4972548;28;20097;-79
2022/08/19 06:23:51;;;;;;;23.05;13.63;;;20.10;99.90;;;;;;4972488;28;20031;-78
2022/08/19 06:26:19;;;;;;;29.40;13.75;;;20.10;99.90;;;;;;4972352;28;20035;-78
2022/08/19 06:28:46;;;;;;;19.50;13.55;;;20.20;99.90;;;;;;4972785;28;20027;-78
2022/08/19 06:31:14;;;;;;;24.85;13.27;;;20.30;99.90;;;;;;4971509;28;20362;-78
2022/08/19 06:33:44;;;;;;;23.77;12.90;;;20.30;99.90;;;;;;4972310;28;20037;-80
2022/08/19 06:36:29;;;;;;;25.00;12.50;;;20.30;99.90;;;;;;4972267;28;20497;-78
2022/08/19 06:38:59;;;;;;;23.92;11.73;;;20.30;99.90;;;;;;4972179;28;20547;-78
2022/08/19 06:41:26;;;;;;;29.02;14.82;;;20.40;99.90;;;;;;4971016;28;20023;-78
2022/08/19 06:43:52;;;;;;;26.35;13.10;;;20.40;99.90;;;;;;4972473;28;20411;-80
2022/08/19 06:46:19;;;;;;;19.70;11.32;;;20.30;99.90;;;;;;4972079;28;20421;-78
2022/08/19 06:48:46;;;;;;;21.55;11.65;;;20.30;99.90;;;;;;4971081;28;20054;-79
2022/08/19 06:51:18;;;;;;;22.83;12.93;;;20.40;99.90;;;;;;4970889;28;20173;-79
2022/08/19 06:53:46;;;;;;;25.17;12.70;;;20.50;99.90;;;;;;4972102;28;20050;-78
2022/08/19 06:56:12;;;;;;;;;;;20.50;99.90;;;;;;4972596;28;20106;-77
2022/08/19 06:58:38;;;;;;;25.52;12.10;;;20.50;99.90;;;;;;4972742;28;19902;-78
2022/08/19 07:01:05;;;;;;;20.00;12.05;;;20.60;99.90;;;;;;4970783;28;20043;-78
2022/08/19 07:03:33;;;;;;;23.60;13.93;;;20.70;99.80;;;;;;4972241;28;20035;-78
2022/08/19 07:06:11;;;;;;;22.45;12.25;;;20.70;99.80;;;;;;4972016;28;20035;-79
2022/08/19 07:08:40;;;;;;;22.17;12.02;;;20.80;99.80;;;;;;4971890;28;20042;-78
2022/08/19 07:11:09;;;;;;;22.02;12.73;;;20.80;99.70;;;;;;4972019;28;20055;-78
2022/08/19 07:13:36;;;;;;;24.63;13.82;;;20.80;99.60;;;;;;4971760;28;20173;-78
2022/08/19 07:16:09;;;;;;;22.75;12.40;;;20.80;99.70;;;;;;4971835;28;20035;-77
2022/08/19 07:18:35;;;;;;;27.42;13.48;;;20.90;99.70;;;;;;4971624;28;20054;-79
2022/08/19 07:21:09;;;;;;;23.42;12.38;;;21.00;99.50;;;;;;4971529;28;20045;-77
2022/08/19 07:23:35;;;;;;;18.67;11.43;;;21.00;99.30;;;;;;4971489;28;20093;-78
2022/08/19 07:26:15;;;;;;;20.98;11.50;;;21.10;99.20;;;;;;4971148;28;20476;-79
2022/08/19 07:28:42;;;;;;;22.75;13.07;;;21.10;99.10;;;;;;4971763;28;20468;-78
2022/08/19 07:31:11;;;;;;;26.53;15.90;;;21.10;99.10;;;;;;4970436;28;20524;-79
2022/08/19 07:33:37;;;;;;;26.05;13.93;;;21.10;99.10;;;;;;4971640;28;20144;-77
2022/08/19 07:36:10;;;;;;;23.83;15.02;;;21.20;98.90;;;;;;4970603;28;20042;-78
2022/08/19 07:38:38;;;;;;;26.02;15.20;;;21.10;98.90;;;;;;4974729;28;20035;-77
2022/08/19 07:41:09;;;;;;;26.33;16.33;;;21.20;98.90;;;;;;4975498;28;20099;-79
2022/08/19 07:43:35;;;;;;;30.67;17.92;;;21.10;98.80;;;;;;4975340;28;20035;-79
2022/08/19 07:46:01;;;;;;;28.08;17.15;;;21.20;98.80;;;;;;4974997;28;20035;-79
2022/08/19 07:48:28;;;;;;;28.17;18.48;;;21.10;98.70;;;;;;4974962;28;20054;-78
2022/08/19 07:51:01;;;;;;;27.73;17.60;;;21.00;99.00;;;;;;4974904;28;20402;-79
2022/08/19 07:53:32;;;;;;;33.00;18.77;;;21.10;98.90;;;;;;4974848;28;20050;-77
2022/08/19 07:56:03;;;;;;;30.58;18.13;;;21.20;98.90;;;;;;4974907;28;20034;-78
2022/08/19 07:58:35;;;;;;;24.73;17.40;;;21.30;98.80;;;;;;4974554;28;20035;-78
2022/08/19 08:01:04;;;;;;;27.92;15.82;;;21.20;98.80;;;;;;4974767;28;20042;-77
2022/08/19 08:09:11;;;;;;;23.05;16.13;;;21.20;98.70;;;;;;4974471;28;20519;-77
2022/08/19 08:11:48;;;;;;;25.38;15.95;;;21.20;98.50;;;;;;4973631;28;20424;-78
2022/08/19 08:14:15;;;;;;;24.05;14.95;;;21.20;98.70;;;;;;4974418;28;20362;-77
2022/08/19 08:16:41;;;;;;;26.23;14.60;;;21.30;98.40;;;;;;4974783;28;20025;-78
2022/08/19 08:19:07;;;;;;;16.83;11.40;;;21.30;98.30;;;;;;4972997;28;20508;-78
2022/08/19 08:21:33;;;;;;;19.73;11.80;;;21.30;97.80;;;;;;4974115;28;20118;-79
2022/08/19 08:23:59;;;;;;;19.25;12.43;;;21.20;97.80;;;;;;4974154;28;20041;-79
2022/08/19 08:26:25;;;;;;;16.90;11.82;;;21.40;98.00;;;;;;4972888;28;20023;-78
2022/08/19 08:28:52;;;;;;;23.58;11.13;;;21.50;97.60;;;;;;4974666;28;20055;-78
2022/08/19 08:31:18;;;;;;;15.88;11.50;;;21.50;97.30;;;;;;4972814;28;20039;-78
2022/08/19 08:33:45;;;;;;;16.27;10.70;;;21.30;97.40;;;;;;4973049;28;20134;-78
2022/08/19 08:36:13;;;;;;;15.57;10.32;;;21.50;97.50;;;;;;4972747;28;20042;-78
2022/08/19 08:38:40;;;;;;;;;;;21.70;97.50;;;;;;4974478;28;20113;-78
2022/08/19 08:41:13;;;;;;;12.48;9.18;;;21.90;97.20;;;;;;4975339;28;19914;-77
2022/08/19 08:43:43;;;;;;;16.58;10.13;;;22.20;96.70;;;;;;4973875;28;20031;-77
2022/08/19 08:46:38;;;;;;;14.82;9.10;;;22.40;96.40;;;;;;4972683;28;20023;-77
2022/08/19 08:49:28;;;;;;;13.32;8.45;;;22.60;95.90;;;;;;4972793;28;20027;-77
2022/08/19 08:52:10;;;;;;;11.65;8.60;;;22.40;95.30;;;;;;4973746;28;20251;-78
2022/08/19 08:54:42;;;;;;;11.73;8.63;;;22.30;95.30;;;;;;4973696;28;20105;-77
2022/08/19 08:57:17;;;;;;;12.48;8.30;;;22.50;95.80;;;;;;4974034;28;20027;-78
2022/08/19 08:59:50;;;;;;;15.63;8.40;;;22.70;95.00;;;;;;4973503;28;20121;-79
2022/08/19 09:02:16;;;;;;;10.52;7.50;;;22.80;94.80;;;;;;4973426;28;20023;-79
2022/08/19 09:04:42;;;;;;;10.45;7.43;;;22.90;94.50;;;;;;4973751;28;20110;-79
2022/08/19 09:07:23;;;;;;;10.25;7.20;;;23.00;94.20;;;;;;4972447;28;20113;-78
2022/08/19 09:09:51;;;;;;;16.55;7.47;;;23.10;94.10;;;;;;4973141;28;20050;-80
2022/08/19 09:12:43;;;;;;;7.43;6.25;;;23.20;93.80;;;;;;4973260;28;20054;-79
2022/08/19 09:15:13;;;;;;;11.57;6.50;;;23.20;93.50;;;;;;4973338;28;20050;-79
2022/08/19 09:17:40;;;;;;;11.45;6.35;;;23.30;93.10;;;;;;4973241;28;20043;-78
2022/08/19 09:20:09;;;;;;;10.30;6.72;;;23.40;93.00;;;;;;4972800;28;20027;-79
2022/08/19 09:22:39;;;;;;;11.40;6.80;;;22.90;92.70;;;;;;4973199;28;20047;-78
2022/08/19 09:25:08;;;;;;;10.93;6.43;;;23.00;93.00;;;;;;4973330;28;20125;-79
2022/08/19 09:27:37;;;;;;;9.38;6.13;;;23.00;92.80;;;;;;4973292;28;20105;-79
2022/08/19 09:30:04;;;;;;;10.57;7.03;;;22.90;93.30;;;;;;4973095;28;20066;-79
2022/08/19 09:32:30;;;;;;;16.23;7.40;;;23.20;93.20;;;;;;4973153;28;20727;-79
2022/08/19 09:34:57;;;;;;;11.40;6.38;;;23.50;93.60;;;;;;4973447;28;20469;-78
2022/08/19 09:37:24;;;;;;;17.98;5.93;;;23.70;92.60;;;;;;4973196;28;20042;-78
2022/08/19 09:39:50;;;;;;;9.77;6.05;;;24.00;93.10;;;;;;4972747;28;20473;-78
2022/08/19 09:42:16;;;;;;;12.27;5.63;;;24.40;92.20;;;;;;4971773;28;20045;-78
2022/08/19 09:44:43;;;;;;;8.50;5.35;;;25.00;91.00;;;;;;4972764;28;20402;-79
2022/08/19 09:47:11;;;;;;;16.52;5.40;;;25.70;92.00;;;;;;4972807;28;20392;-78
2022/08/19 09:49:38;;;;;;;9.77;4.82;;;26.80;88.50;;;;;;4971690;28;20062;-79
2022/08/19 09:52:07;;;;;;;8.88;5.50;;;27.70;87.60;;;;;;4971450;28;20372;-79
2022/08/19 09:54:33;;;;;;;9.43;5.07;;;28.20;81.30;;;;;;4972531;28;20484;-80
2022/08/19 09:57:02;;;;;;;12.15;5.22;;;27.80;79.30;;;;;;4972487;28;20031;-80
2022/08/19 09:59:29;;;;;;;6.07;4.35;;;27.60;80.50;;;;;;4970983;28;20110;-79
2022/08/19 10:01:55;;;;;;;9.00;5.55;;;27.50;80.20;;;;;;4973150;28;20717;-80
2022/08/19 10:04:22;;;;;;;7.90;4.60;;;27.30;78.50;;;;;;4972399;28;20042;-78
2022/08/19 10:06:49;;;;;;;6.72;4.15;;;27.30;80.40;;;;;;4972368;28;20023;-78
2022/08/19 10:09:17;;;;;;;7.65;4.80;;;27.30;78.70;;;;;;4971994;28;20077;-78
2022/08/19 10:11:49;;;;;;;11.82;6.93;;;27.90;79.00;;;;;;4972169;28;20030;-79
2022/08/19 10:14:16;;;;;;;10.07;4.28;;;28.20;78.10;;;;;;4971941;28;20042;-79
2022/08/19 10:16:42;;;;;;;7.38;4.80;;;28.60;76.60;;;;;;4972648;28;20077;-79
2022/08/19 10:19:09;;;;;;;7.28;5.43;;;28.70;75.10;;;;;;4971993;28;20027;-79
2022/08/19 10:21:36;;;;;;;9.43;4.97;;;28.10;74.90;;;;;;4972007;28;20482;-78
2022/08/19 10:24:04;;;;;;;6.88;4.80;;;28.00;75.60;;;;;;4971991;28;20039;-78
2022/08/19 10:26:32;;;;;;;10.88;4.93;;;27.80;75.40;;;;;;4971760;28;20041;-78
2022/08/19 10:28:59;;;;;;;15.65;5.50;;;27.90;75.70;;;;;;4972115;28;20042;-80
2022/08/19 10:31:28;;;;;;;4.32;3.92;;;27.80;73.60;;;;;;4970792;28;20471;-78
2022/08/19 10:33:57;;;;;;;6.60;4.32;;;27.70;75.60;;;;;;4979450;28;20421;-80
2022/08/19 10:36:30;;;;;;;8.93;4.70;;;27.70;74.20;;;;;;4990274;28;20194;-79
2022/08/19 10:39:01;;;;;;;8.52;4.88;;;27.80;74.90;;;;;;4990151;28;20041;-79
2022/08/19 10:41:30;;;;;;;8.95;4.40;;;27.70;73.10;;;;;;4991667;28;20022;-80
2022/08/19 10:43:59;;;;;;;7.50;4.22;;;27.80;73.00;;;;;;4991944;28;20022;-78
2022/08/19 10:46:27;;;;;;;11.98;3.88;;;27.90;73.30;;;;;;4991231;28;20049;-79
2022/08/19 10:48:54;;;;;;;7.13;3.83;;;28.10;72.10;;;;;;4990230;28;20046;-79
2022/08/19 10:54:05;;;;;;;7.28;3.55;;;27.30;72.40;;;;;;4991383;28;20107;-79
2022/08/19 10:59:27;;;;;;;6.10;3.53;;;27.20;72.50;;;;;;4991618;28;20061;-80
2022/08/19 11:01:54;;;;;;;8.70;3.88;;;27.30;72.80;;;;;;4991667;28;20050;-79
2022/08/19 11:04:22;;;;;;;5.13;3.20;;;27.40;73.10;;;;;;4991432;28;20113;-79
2022/08/19 11:06:49;;;;;;;6.82;3.83;;;27.60;72.70;;;;;;4990800;28;20046;-79
2022/08/19 11:09:18;;;;;;;5.82;3.78;;;27.40;72.20;;;;;;4989675;28;20350;-79
2022/08/19 11:11:44;;;;;;;7.55;3.80;;;27.40;73.00;;;;;;4991234;28;20034;-78
2022/08/19 11:14:13;;;;;;;5.32;3.50;;;27.30;73.40;;;;;;4994384;28;20027;-78
2022/08/19 11:16:40;;;;;;;7.18;3.42;;;27.50;72.60;;;;;;4994899;28;20061;-78
2022/08/19 11:19:08;;;;;;;4.05;2.72;;;27.50;72.90;;;;;;4994819;28;20469;-80
2022/08/19 11:21:38;;;;;;;;;;;27.70;72.80;;;;;;4995616;28;20026;-79
2022/08/19 11:24:08;;;;;;;6.82;2.58;;;27.20;71.10;;;;;;4994608;28;19909;-79
2022/08/19 11:26:34;;;;;;;4.45;3.47;;;27.10;71.30;;;;;;4994760;28;20463;-78
2022/08/19 11:29:01;;;;;;;6.95;2.67;;;27.40;72.00;;;;;;4995134;28;20105;-78
2022/08/19 11:31:30;;;;;;;7.13;3.10;;;27.50;71.50;;;;;;4993840;28;20042;-80
2022/08/19 11:33:59;;;;;;;4.38;2.55;;;27.70;71.10;;;;;;4994842;28;20068;-79
2022/08/19 11:36:25;;;;;;;4.55;2.25;;;27.60;71.40;;;;;;4994872;28;20074;-80
2022/08/19 11:38:51;;;;;;;7.45;2.53;;;27.60;71.20;;;;;;4993455;28;20050;-80
2022/08/19 11:41:20;;;;;;;4.97;3.55;;;27.70;71.40;;;;;;4993420;28;20049;-77
2022/08/19 11:43:46;;;;;;;4.47;2.60;;;27.60;70.70;;;;;;4994299;28;20528;-79
2022/08/19 11:46:13;;;;;;;3.83;2.38;;;27.40;70.30;;;;;;4995250;28;20113;-79
2022/08/19 11:48:40;;;;;;;10.32;2.53;;;27.60;71.50;;;;;;4994793;28;20042;-80
2022/08/19 11:51:09;;;;;;;5.10;2.50;;;27.70;71.30;;;;;;4994335;28;20039;-79
2022/08/19 11:53:35;;;;;;;4.75;2.40;;;27.70;70.70;;;;;;4994409;28;20449;-78
2022/08/19 11:56:04;;;;;;;4.20;2.38;;;27.70;70.80;;;;;;4994979;28;20037;-78
2022/08/19 11:58:30;;;;;;;6.45;2.70;;;27.60;71.10;;;;;;4994339;28;20046;-78
2022/08/19 12:00:56;;;;;;;4.85;2.70;;;27.50;70.30;;;;;;4993249;28;20373;-79
2022/08/19 12:03:22;;;;;;;3.13;2.42;;;27.30;70.90;;;;;;4993234;28;20381;-79
2022/08/19 12:05:49;;;;;;;6.05;2.63;;;27.30;71.00;;;;;;4994072;28;20027;-79
2022/08/19 12:08:15;;;;;;;3.95;2.25;;;27.30;71.90;;;;;;4994158;28;20022;-79
2022/08/19 12:10:42;;;;;;;3.58;2.30;;;27.40;71.60;;;;;;4994774;28;20062;-81
2022/08/19 12:13:08;;;;;;;8.05;3.42;;;27.50;71.80;;;;;;4993884;28;20026;-79
2022/08/19 12:15:40;;;;;;;7.10;2.25;;;27.50;71.30;;;;;;4994080;28;20243;-78
2022/08/19 12:18:07;;;;;;;7.40;2.55;;;27.60;70.80;;;;;;4994152;28;20034;-80
2022/08/19 12:20:39;;;;;;;4.25;3.58;;;27.60;70.20;;;;;;4993662;28;20044;-79
2022/08/19 12:23:06;;;;;;;3.75;2.60;;;27.60;70.60;;;;;;4994249;28;20022;-77
2022/08/19 12:25:32;;;;;;;4.37;2.53;;;27.70;70.60;;;;;;4993857;28;20520;-77
2022/08/19 12:27:58;;;;;;;9.43;2.90;;;27.80;70.50;;;;;;4993663;28;20023;-79
2022/08/19 12:30:24;;;;;;;4.97;3.10;;;27.70;69.90;;;;;;4993728;28;20058;-80
2022/08/19 12:32:51;;;;;;;6.30;4.10;;;27.70;70.40;;;;;;4993847;28;20038;-78
2022/08/19 12:35:19;;;;;;;5.18;2.67;;;27.70;70.40;;;;;;4992600;28;20049;-78
2022/08/19 12:37:46;;;;;;;4.50;2.40;;;27.70;69.90;;;;;;4994041;28;20018;-79
2022/08/19 12:40:13;;;;;;;5.03;2.83;;;27.80;69.90;;;;;;4993608;28;20034;-78
2022/08/19 12:42:43;;;;;;;3.45;2.40;;;27.70;69.80;;;;;;4992569;28;20042;-78
2022/08/19 12:45:10;;;;;;;7.97;2.13;;;27.70;69.40;;;;;;4993730;28;20030;-78
2022/08/19 12:47:37;;;;;;;5.80;2.20;;;27.60;69.80;;;;;;4993577;28;20460;-78
2022/08/19 12:50:04;;;;;;;3.00;2.20;;;27.70;70.90;;;;;;4994199;28;20459;-78
2022/08/19 12:52:30;;;;;;;3.78;2.45;;;27.60;70.50;;;;;;4993921;28;20023;-78
2022/08/19 12:54:57;;;;;;;4.35;2.35;;;27.80;70.90;;;;;;4993638;28;20039;-77
2022/08/19 12:57:25;;;;;;;4.53;2.13;;;27.70;70.80;;;;;;4993524;28;20042;-78
2022/08/19 12:59:54;;;;;;;5.10;2.38;;;27.70;70.30;;;;;;4992232;28;20510;-79
2022/08/19 13:02:21;;;;;;;3.40;2.40;;;27.80;70.40;;;;;;4993209;28;20440;-79
2022/08/19 13:04:47;;;;;;;3.35;1.80;;;27.80;69.30;;;;;;4992648;28;20042;-80